createdAt,value
2022-08-16T00:01:10.280Z,74.89
2022-08-16T00:04:32.079Z,75.11
2022-08-16T00:08:08.829Z,75.40
2022-08-16T00:11:52.697Z,75.69
2022-08-16T00:15:52.199Z,75.59
2022-08-16T00:19:41.948Z,75.21
2022-08-16T00:23:24.586Z,75.27
2022-08-16T00:26:56.700Z,75.48
2022-08-16T00:30:33.453Z,75.61
2022-08-16T00:34:09.762Z,75.73
2022-08-16T00:38:40.670Z,75.99
2022-08-16T00:41:50.447Z,76.11
2022-08-16T00:45:58.274Z,76.47
2022-08-16T00:49:23.112Z,76.64
2022-08-16T00:52:59.972Z,76.90
2022-08-16T00:56:59.979Z,77.39
2022-08-16T01:00:28.193Z,77.38
2022-08-16T01:04:00.621Z,77.39
2022-08-16T01:07:51.075Z,77.52
2022-08-16T01:11:15.419Z,77.94
2022-08-16T01:14:57.472Z,77.99
2022-08-16T01:18:38.970Z,78.21
2022-08-16T01:22:47.669Z,78.38
2022-08-16T01:26:34.827Z,78.38
2022-08-16T01:30:27.783Z,78.46
2022-08-16T01:33:50.204Z,78.59
2022-08-16T01:37:26.614Z,78.76
2022-08-16T01:41:19.928Z,78.88
2022-08-16T01:44:44.576Z,78.99
2022-08-16T01:48:23.881Z,78.67
2022-08-16T01:52:02.634Z,78.58
2022-08-16T01:55:41.528Z,78.65
2022-08-16T01:59:17.116Z,78.90
2022-08-16T02:02:55.450Z,78.96
2022-08-16T02:06:34.445Z,78.80
2022-08-16T02:10:27.137Z,78.61
2022-08-16T02:13:50.180Z,78.56
2022-08-16T02:17:45.161Z,78.72
2022-08-16T02:21:09.866Z,78.70
2022-08-16T02:24:45.829Z,78.99
2022-08-16T02:28:24.437Z,78.89
2022-08-16T02:32:03.930Z,78.48
2022-08-16T02:35:54.093Z,78.59
2022-08-16T02:39:23.073Z,78.56
2022-08-16T02:43:17.771Z,79.07
2022-08-16T02:46:40.205Z,79.31
2022-08-16T02:50:53.872Z,79.67
2022-08-16T02:53:59.469Z,79.53
2022-08-16T02:57:35.858Z,79.41
2022-08-16T03:01:24.710Z,79.30
2022-08-16T03:05:00.241Z,79.24
2022-08-16T03:08:52.699Z,79.56
2022-08-16T03:12:18.627Z,79.90
2022-08-16T03:16:33.074Z,80.71
2022-08-16T03:20:18.311Z,81.68
2022-08-16T03:23:40.770Z,82.10
2022-08-16T03:27:16.804Z,82.03
2022-08-16T03:30:54.033Z,82.17
2022-08-16T03:34:33.450Z,82.18
2022-08-16T03:38:32.745Z,82.00
2022-08-16T03:41:59.759Z,81.65
2022-08-16T03:45:37.327Z,81.70
2022-08-16T03:49:13.417Z,81.86
2022-08-16T03:52:49.326Z,81.83
2022-08-16T03:56:27.315Z,81.47
2022-08-16T04:00:20.621Z,81.28
2022-08-16T04:03:58.029Z,81.22
2022-08-16T04:07:52.035Z,81.30
2022-08-16T04:11:16.422Z,81.57
2022-08-16T04:14:50.545Z,81.55
2022-08-16T04:18:27.431Z,81.66
2022-08-16T04:22:27.706Z,81.59
2022-08-16T04:26:17.245Z,81.58
2022-08-16T04:30:02.767Z,81.49
2022-08-16T04:33:28.643Z,81.58
2022-08-16T04:37:07.329Z,81.73
2022-08-16T04:41:01.061Z,81.94
2022-08-16T04:44:53.373Z,82.16
2022-08-16T04:48:21.765Z,82.19
2022-08-16T04:52:34.140Z,82.71
2022-08-16T04:56:18.596Z,83.08
2022-08-16T04:59:40.508Z,83.45
2022-08-16T05:03:17.444Z,83.80
2022-08-16T05:06:54.272Z,84.04
2022-08-16T05:10:31.492Z,84.04
2022-08-16T05:14:07.771Z,84.16
2022-08-16T05:18:04.139Z,84.62
2022-08-16T05:21:48.557Z,84.87
2022-08-16T05:25:14.368Z,85.03
2022-08-16T05:29:11.094Z,85.25
2022-08-16T05:32:47.381Z,85.10
2022-08-16T05:36:36.616Z,85.39
2022-08-16T05:40:19.031Z,85.49
2022-08-16T05:43:47.519Z,85.29
2022-08-16T05:47:20.607Z,84.98
2022-08-16T05:50:57.458Z,85.04
2022-08-16T05:54:34.140Z,84.72
2022-08-16T05:58:31.743Z,84.56
2022-08-16T06:01:54.480Z,84.75
2022-08-16T06:05:31.000Z,84.93
2022-08-16T06:09:25.926Z,85.09
2022-08-16T06:13:05.831Z,84.77
2022-08-16T06:17:05.237Z,84.63
2022-08-16T06:20:35.259Z,84.68
2022-08-16T06:24:54.156Z,84.76
2022-08-16T06:27:57.617Z,84.99
2022-08-16T06:31:30.183Z,85.01
2022-08-16T06:35:08.134Z,84.57
2022-08-16T06:39:05.129Z,84.11
2022-08-16T06:42:59.666Z,83.92
2022-08-16T06:46:40.856Z,83.80
2022-08-16T06:50:22.282Z,83.55
2022-08-16T06:54:14.245Z,83.50
2022-08-16T06:57:39.770Z,83.08
2022-08-16T07:01:15.002Z,83.28
2022-08-16T07:05:15.210Z,83.48
2022-08-16T07:09:09.786Z,82.92
2022-08-16T07:12:47.131Z,82.58
2022-08-16T07:16:16.751Z,81.57
2022-08-16T07:20:29.801Z,81.14
2022-08-16T07:23:41.236Z,81.15
2022-08-16T07:27:37.278Z,80.78
2022-08-16T07:31:05.072Z,80.66
2022-08-16T07:34:48.432Z,80.09
2022-08-16T07:38:19.496Z,79.39
2022-08-16T07:41:53.169Z,79.25
2022-08-16T07:45:29.600Z,78.84
2022-08-16T07:49:11.377Z,78.04
2022-08-16T07:52:44.859Z,78.05
2022-08-16T07:56:20.536Z,76.64
2022-08-16T07:59:57.259Z,75.66
2022-08-16T08:03:36.098Z,75.78
2022-08-16T08:07:12.407Z,75.53
2022-08-16T08:10:47.704Z,74.95
2022-08-16T08:14:29.368Z,74.72
2022-08-16T08:18:30.058Z,74.55
2022-08-16T08:22:00.527Z,74.64
2022-08-16T08:25:54.587Z,72.61
2022-08-16T08:29:23.227Z,72.72
2022-08-16T08:33:17.412Z,72.82
2022-08-16T08:36:42.599Z,72.02
2022-08-16T08:40:19.860Z,71.30
2022-08-16T08:43:57.889Z,71.16
2022-08-16T08:47:54.204Z,69.34
2022-08-16T08:51:41.369Z,68.15
2022-08-16T08:55:27.252Z,66.49
2022-08-16T08:58:58.120Z,65.90
2022-08-16T09:02:50.420Z,65.25
2022-08-16T09:06:35.478Z,65.20
2022-08-16T09:10:06.437Z,64.71
2022-08-16T09:13:35.358Z,63.27
2022-08-16T09:17:31.591Z,62.94
2022-08-16T09:20:59.849Z,63.35
2022-08-16T09:24:47.153Z,63.75
2022-08-16T09:28:38.102Z,63.42
2022-08-16T09:32:28.591Z,63.31
2022-08-16T09:35:56.509Z,63.46
2022-08-16T09:39:41.281Z,63.54
2022-08-16T09:43:37.783Z,63.74
2022-08-16T09:46:57.890Z,63.65
2022-08-16T09:50:50.187Z,62.38
2022-08-16T09:54:17.018Z,61.95
2022-08-16T09:57:52.728Z,61.75
2022-08-16T10:01:28.591Z,61.53
2022-08-16T10:05:06.567Z,61.55
2022-08-16T10:09:04.640Z,61.56
2022-08-16T10:12:55.713Z,62.28
2022-08-16T10:16:38.940Z,61.47
2022-08-16T10:20:00.989Z,62.01
2022-08-16T10:23:39.275Z,60.77
2022-08-16T10:27:26.313Z,61.27
2022-08-16T10:31:16.920Z,61.04
2022-08-16T10:34:54.958Z,61.74
2022-08-16T10:38:36.526Z,61.07
2022-08-16T10:42:08.277Z,61.22
2022-08-16T10:45:44.937Z,60.06
2022-08-16T10:49:42.509Z,60.37
2022-08-16T10:53:07.770Z,60.26
2022-08-16T10:56:55.985Z,60.48
2022-08-16T11:00:21.449Z,60.07
2022-08-16T11:03:57.301Z,60.15
2022-08-16T11:07:52.174Z,60.08
2022-08-16T11:11:35.531Z,60.20
2022-08-16T11:15:18.435Z,59.38
2022-08-16T11:19:05.750Z,59.93
2022-08-16T11:22:47.353Z,60.02
2022-08-16T11:26:23.642Z,60.26
2022-08-16T11:29:50.076Z,60.20
2022-08-16T11:33:52.188Z,60.17
2022-08-16T11:37:14.998Z,60.38
2022-08-16T11:41:09.406Z,60.27
2022-08-16T11:44:53.119Z,60.52
2022-08-16T11:48:14.552Z,60.85
2022-08-16T11:51:51.735Z,60.54
2022-08-16T11:55:54.492Z,60.45
2022-08-16T11:59:19.616Z,60.68
2022-08-16T12:03:14.078Z,60.37
2022-08-16T12:06:36.344Z,60.57
2022-08-16T12:10:19.423Z,60.45
2022-08-16T12:14:08.623Z,60.38
2022-08-16T12:17:32.448Z,60.63
2022-08-16T12:21:09.778Z,60.70
2022-08-16T12:24:44.394Z,60.87
2022-08-16T12:28:25.501Z,61.13
2022-08-16T12:32:37.854Z,60.91
2022-08-16T12:36:01.743Z,61.42
2022-08-16T12:39:38.054Z,60.40
2022-08-16T12:43:16.319Z,60.01
2022-08-16T12:47:11.524Z,60.18
2022-08-16T12:50:38.698Z,60.55
2022-08-16T12:54:17.463Z,60.86
2022-08-16T12:57:58.544Z,60.65
2022-08-16T13:01:32.379Z,60.63
2022-08-16T13:05:07.068Z,60.59
2022-08-16T13:08:42.667Z,60.69
2022-08-16T13:12:25.065Z,60.45
2022-08-16T13:16:00.857Z,60.33
2022-08-16T13:19:49.798Z,60.02
2022-08-16T13:23:16.483Z,59.99
2022-08-16T13:27:12.735Z,59.88
2022-08-16T13:30:43.329Z,59.48
2022-08-16T13:34:13.332Z,59.99
2022-08-16T13:38:08.105Z,60.34
2022-08-16T13:41:54.233Z,60.07
2022-08-16T13:45:17.187Z,60.28
2022-08-16T13:49:13.408Z,60.59
2022-08-16T13:52:55.947Z,60.76
2022-08-16T13:56:39.678Z,61.08
2022-08-16T14:00:06.018Z,60.57
2022-08-16T14:03:40.120Z,60.85
2022-08-16T14:07:19.763Z,60.88
2022-08-16T14:10:53.158Z,61.43
2022-08-16T14:14:30.417Z,61.60
2022-08-16T14:18:16.056Z,61.26
2022-08-16T14:22:14.594Z,61.22
2022-08-16T14:25:57.322Z,61.10
2022-08-16T14:32:57.042Z,61.08
2022-08-16T14:36:33.038Z,61.18
2022-08-16T14:40:31.764Z,61.28
2022-08-16T14:44:12.351Z,60.95
2022-08-16T14:47:38.266Z,60.72
2022-08-16T14:51:12.235Z,60.65
2022-08-16T14:55:09.047Z,60.35
2022-08-16T14:58:51.675Z,61.12
2022-08-16T15:02:33.818Z,61.15
2022-08-16T15:05:57.259Z,60.90
2022-08-16T15:09:33.602Z,60.97
2022-08-16T15:13:29.390Z,60.63
2022-08-16T15:16:51.251Z,60.81
2022-08-16T15:20:33.453Z,60.96
2022-08-16T15:24:24.810Z,61.18
2022-08-16T15:27:55.278Z,61.55
2022-08-16T15:31:43.796Z,62.15
2022-08-16T15:35:08.081Z,62.12
2022-08-16T15:38:56.280Z,62.23
2022-08-16T15:42:27.449Z,61.85
2022-08-16T15:46:35.705Z,61.62
2022-08-16T15:50:06.590Z,61.59
2022-08-16T15:53:41.974Z,61.30
2022-08-16T15:57:17.982Z,61.22
2022-08-16T16:00:55.691Z,61.37
2022-08-16T16:04:50.663Z,61.32
2022-08-16T16:08:24.217Z,61.77
2022-08-16T16:11:53.150Z,62.08
2022-08-16T16:15:33.600Z,62.58
2022-08-16T16:19:06.840Z,63.48
2022-08-16T16:22:43.621Z,64.26
2022-08-16T16:26:19.738Z,64.71
2022-08-16T16:29:57.924Z,65.37
2022-08-16T16:33:35.865Z,65.81
2022-08-16T16:37:10.386Z,65.77
2022-08-16T16:40:54.366Z,66.01
2022-08-16T16:44:33.822Z,66.23
2022-08-16T16:48:12.449Z,66.28
2022-08-16T16:52:06.633Z,66.54
2022-08-16T16:55:29.105Z,66.69
2022-08-16T16:59:09.220Z,66.90
2022-08-16T17:03:01.817Z,67.21
2022-08-16T17:06:23.723Z,67.38
2022-08-16T17:14:05.185Z,67.86
2022-08-16T17:18:00.175Z,68.15
2022-08-16T17:21:24.136Z,68.27
2022-08-16T17:25:00.992Z,68.90
2022-08-16T17:28:59.033Z,69.11
2022-08-16T17:32:46.550Z,69.56
2022-08-16T17:36:06.093Z,70.28
2022-08-16T17:39:26.200Z,67.82
2022-08-16T17:39:59.616Z,70.63
2022-08-16T17:43:29.093Z,70.39
2022-08-16T17:47:18.472Z,70.21
2022-08-16T17:50:59.309Z,70.61
2022-08-16T17:54:30.753Z,70.68
2022-08-16T17:58:01.920Z,70.38
2022-08-16T18:01:42.667Z,70.82
2022-08-16T18:05:20.371Z,71.29
2022-08-16T18:09:02.471Z,71.36
2022-08-16T18:12:45.280Z,70.96
2022-08-16T18:16:18.566Z,70.56
2022-08-16T18:19:55.095Z,70.62
2022-08-16T18:23:32.745Z,70.63
2022-08-16T18:27:25.836Z,71.06
2022-08-16T18:31:11.390Z,71.72
2022-08-16T18:34:55.542Z,72.55
2022-08-16T18:38:17.135Z,73.18
2022-08-16T18:41:54.233Z,73.35
2022-08-16T18:45:35.515Z,74.01
2022-08-16T18:49:07.549Z,74.44
2022-08-16T18:52:50.461Z,74.96
2022-08-16T18:56:53.837Z,74.52
2022-08-16T19:00:13.725Z,74.53
2022-08-16T19:04:06.458Z,75.02
2022-08-16T19:07:48.942Z,75.68
2022-08-16T19:11:28.549Z,75.63
2022-08-16T19:15:02.214Z,75.82
2022-08-16T19:18:57.722Z,76.15
2022-08-16T19:23:01.741Z,76.34
2022-08-16T19:26:25.645Z,76.23
2022-08-16T19:29:50.762Z,76.49
2022-08-16T19:33:27.236Z,76.69
2022-08-16T19:37:24.045Z,76.90
2022-08-16T19:40:48.937Z,76.91
2022-08-16T19:44:23.235Z,76.78
2022-08-16T19:48:03.684Z,76.64
2022-08-16T19:51:37.641Z,76.86
2022-08-16T19:55:13.159Z,77.01
2022-08-16T19:59:17.604Z,77.35
2022-08-16T20:02:54.241Z,77.19
2022-08-16T20:06:32.101Z,76.73
2022-08-16T20:10:18.401Z,76.77
2022-08-16T20:13:41.864Z,76.96
2022-08-16T20:17:17.696Z,76.83
2022-08-16T20:21:12.963Z,77.12
2022-08-16T20:24:54.317Z,77.29
2022-08-16T20:28:39.672Z,77.23
2022-08-16T20:32:00.916Z,77.12
2022-08-16T20:35:42.460Z,77.25
2022-08-16T20:39:13.842Z,77.57
2022-08-16T20:43:12.887Z,77.77
2022-08-16T20:46:54.782Z,78.31
2022-08-16T20:50:16.550Z,78.68
2022-08-16T20:54:11.959Z,78.84
2022-08-16T20:57:37.975Z,78.68
2022-08-16T21:01:13.558Z,78.45
2022-08-16T21:05:10.289Z,78.83
2022-08-16T21:08:51.775Z,79.12
2022-08-16T21:12:18.073Z,79.18
2022-08-16T21:15:55.667Z,79.19
2022-08-16T21:19:30.602Z,79.05
2022-08-16T21:23:25.362Z,78.88
2022-08-16T21:27:06.307Z,79.02
2022-08-16T21:30:32.343Z,79.08
2022-08-16T21:34:23.803Z,79.38
2022-08-16T21:38:01.062Z,79.48
2022-08-16T21:41:46.614Z,79.39
2022-08-16T21:45:13.495Z,79.53
2022-08-16T21:48:45.327Z,79.32
2022-08-16T21:52:26.634Z,79.46
2022-08-16T21:56:00.430Z,79.75
2022-08-16T21:59:55.248Z,79.89
2022-08-16T22:03:21.209Z,79.86
2022-08-16T22:06:54.020Z,79.64
2022-08-16T22:11:04.698Z,79.58
2022-08-16T22:14:14.797Z,79.77
2022-08-16T22:17:58.314Z,80.28
2022-08-16T22:21:28.763Z,80.28
2022-08-16T22:25:05.867Z,79.98
2022-08-16T22:28:46.030Z,79.65
2022-08-16T22:32:19.241Z,79.84
2022-08-16T22:35:58.600Z,79.94
2022-08-16T22:39:51.215Z,80.36
2022-08-16T22:43:32.466Z,80.55
2022-08-16T22:46:54.473Z,80.51
2022-08-16T22:50:32.530Z,80.17
2022-08-16T22:54:44.375Z,79.92
2022-08-16T22:58:36.292Z,80.08
2022-08-16T23:02:20.709Z,80.56
2022-08-16T23:05:52.976Z,80.69
2022-08-16T23:09:19.853Z,80.90
2022-08-16T23:12:59.394Z,80.63
2022-08-16T23:16:51.575Z,80.33
2022-08-16T23:20:13.034Z,80.31
2022-08-16T23:23:50.893Z,80.32
2022-08-16T23:27:26.719Z,80.72
2022-08-16T23:31:23.048Z,81.38
2022-08-16T23:35:03.651Z,81.49
2022-08-16T23:38:38.062Z,81.10
2022-08-16T23:42:52.858Z,80.95
2022-08-16T23:46:21.727Z,81.18
2022-08-16T23:49:58.570Z,81.25
2022-08-16T23:53:33.724Z,81.16
2022-08-16T23:57:04.547Z,81.11
